createdAt,value
2018-07-23T00:00:48.526Z,10.63
2018-07-23T00:03:18.681Z,9.60
2018-07-23T00:05:48.038Z,9.87
2018-07-23T00:08:17.331Z,17.63
2018-07-23T00:10:47.274Z,10.53
2018-07-23T00:13:16.454Z,14.20
2018-07-23T00:15:45.857Z,11.60
2018-07-23T00:18:15.276Z,10.87
2018-07-23T00:20:44.848Z,11.83
2018-07-23T00:23:14.459Z,9.97
2018-07-23T00:25:44.110Z,11.13
2018-07-23T00:28:13.772Z,11.40
2018-07-23T00:30:43.388Z,13.87
2018-07-23T00:33:12.994Z,11.00
2018-07-23T00:35:42.666Z,12.87
2018-07-23T00:38:12.281Z,11.23
2018-07-23T00:40:42.664Z,9.70
2018-07-23T00:43:12.410Z,12.33
2018-07-23T00:45:41.976Z,9.53
2018-07-23T00:48:13.327Z,11.20
2018-07-23T00:50:42.877Z,10.20
2018-07-23T00:53:12.420Z,8.83
2018-07-23T00:58:42.453Z,9.97
2018-07-23T01:01:13.391Z,10.10
2018-07-23T01:03:43.372Z,10.37
2018-07-23T01:06:14.850Z,9.97
2018-07-23T01:08:44.379Z,9.83
2018-07-23T01:11:13.978Z,12.40
2018-07-23T01:13:43.790Z,20.13
2018-07-23T01:16:13.488Z,11.10
2018-07-23T01:18:43.149Z,10.20
2018-07-23T01:21:12.957Z,22.53
2018-07-23T01:23:42.872Z,14.83
2018-07-23T01:26:12.729Z,11.53
2018-07-23T01:28:42.502Z,13.47
2018-07-23T01:31:12.629Z,12.47
2018-07-23T01:33:42.416Z,12.93
2018-07-23T01:36:12.239Z,10.27
2018-07-23T01:38:42.059Z,18.53
2018-07-23T01:41:11.761Z,13.03
2018-07-23T01:43:41.501Z,11.70
2018-07-23T01:46:11.373Z,13.00
2018-07-23T01:48:41.085Z,12.43
2018-07-23T01:51:10.758Z,11.90
2018-07-23T01:53:40.707Z,10.43
2018-07-23T01:56:10.972Z,10.73
2018-07-23T01:58:40.873Z,14.30
2018-07-23T02:01:12.703Z,12.07
2018-07-23T02:03:42.834Z,14.10
2018-07-23T02:06:12.460Z,11.60
2018-07-23T02:08:42.416Z,12.43
2018-07-23T02:11:12.180Z,13.93
2018-07-23T02:13:41.881Z,13.73
2018-07-23T02:16:11.470Z,12.30
2018-07-23T02:18:41.025Z,13.30
2018-07-23T02:21:10.728Z,12.70
2018-07-23T02:23:41.560Z,14.13
2018-07-23T02:26:11.776Z,12.27
2018-07-23T02:28:41.322Z,13.40
2018-07-23T02:31:11.384Z,14.00
2018-07-23T02:33:42.285Z,13.73
2018-07-23T02:36:12.429Z,12.83
2018-07-23T02:38:42.421Z,12.03
2018-07-23T02:41:11.928Z,13.20
2018-07-23T02:43:41.537Z,20.03
2018-07-23T02:46:11.471Z,20.97
2018-07-23T02:48:41.459Z,13.57
2018-07-23T02:51:11.320Z,14.07
2018-07-23T02:53:41.946Z,17.10
2018-07-23T02:56:11.625Z,14.47
2018-07-23T02:58:41.531Z,14.47
2018-07-23T03:01:11.210Z,18.20
2018-07-23T03:03:40.855Z,19.30
2018-07-23T03:06:11.013Z,17.53
2018-07-23T03:08:40.990Z,15.00
2018-07-23T03:11:10.636Z,14.83
2018-07-23T03:13:40.462Z,16.30
2018-07-23T03:16:10.240Z,18.17
2018-07-23T03:18:40.656Z,15.73
2018-07-23T03:21:11.427Z,19.80
2018-07-23T03:23:41.212Z,17.33
2018-07-23T03:26:10.914Z,13.63
2018-07-23T03:28:40.997Z,18.90
2018-07-23T03:31:10.775Z,14.17
2018-07-23T03:33:40.501Z,18.30
2018-07-23T03:36:10.451Z,16.50
2018-07-23T03:38:40.452Z,22.57
2018-07-23T03:41:10.780Z,14.73
2018-07-23T03:43:41.232Z,16.40
2018-07-23T03:46:11.393Z,17.13
2018-07-23T03:48:41.178Z,15.50
2018-07-23T03:51:11.022Z,19.10
2018-07-23T03:53:41.100Z,18.60
2018-07-23T03:56:11.342Z,25.67
2018-07-23T03:58:41.405Z,16.50
2018-07-23T04:01:11.053Z,15.87
2018-07-23T04:03:40.557Z,13.33
2018-07-23T04:06:10.382Z,14.33
2018-07-23T04:08:40.691Z,16.90
2018-07-23T04:11:10.399Z,14.47
2018-07-23T04:13:41.040Z,14.70
2018-07-23T04:16:10.748Z,19.20
2018-07-23T04:18:40.337Z,15.10
2018-07-23T04:21:10.171Z,16.60
2018-07-23T04:23:40.007Z,13.43
2018-07-23T04:26:09.588Z,13.33
2018-07-23T04:28:39.532Z,12.10
2018-07-23T04:31:09.500Z,17.70
2018-07-23T04:33:39.236Z,11.93
2018-07-23T04:36:09.559Z,13.13
2018-07-23T04:38:39.317Z,13.63
2018-07-23T04:41:09.075Z,18.80
2018-07-23T04:43:38.784Z,10.23
2018-07-23T04:46:08.733Z,10.80
2018-07-23T04:48:38.955Z,10.80
2018-07-23T04:51:09.088Z,12.40
2018-07-23T04:53:38.729Z,12.23
2018-07-23T04:56:08.611Z,13.87
2018-07-23T04:58:38.866Z,10.93
2018-07-23T05:01:09.068Z,10.40
2018-07-23T05:03:39.655Z,10.90
2018-07-23T05:06:09.668Z,12.33
2018-07-23T05:08:39.558Z,10.07
2018-07-23T05:11:09.283Z,9.97
2018-07-23T05:13:40.243Z,9.73
2018-07-23T05:16:10.343Z,8.93
2018-07-23T05:18:40.093Z,9.83
2018-07-23T05:21:12.839Z,10.20
2018-07-23T05:23:42.586Z,9.60
2018-07-23T05:26:12.123Z,9.17
2018-07-23T05:28:41.922Z,9.70
2018-07-23T05:31:11.608Z,11.17
2018-07-23T05:33:41.851Z,8.23
2018-07-23T05:36:12.132Z,10.27
2018-07-23T05:38:42.374Z,8.23
2018-07-23T05:41:12.174Z,7.40
2018-07-23T05:43:43.413Z,8.33
2018-07-23T05:46:13.283Z,8.43
2018-07-23T05:48:43.275Z,10.13
2018-07-23T05:51:13.610Z,7.27
2018-07-23T05:53:43.638Z,6.90
2018-07-23T05:56:13.559Z,7.70
2018-07-23T05:58:43.825Z,9.03
2018-07-23T06:01:14.213Z,6.73
2018-07-23T06:03:44.631Z,9.40
2018-07-23T06:06:14.697Z,13.50
2018-07-23T06:08:44.963Z,6.40
2018-07-23T06:11:15.090Z,8.73
2018-07-23T06:13:45.866Z,8.50
2018-07-23T06:16:16.881Z,7.93
2018-07-23T06:18:46.676Z,10.40
2018-07-23T06:21:16.730Z,8.20
2018-07-23T06:23:46.951Z,7.93
2018-07-23T06:26:16.580Z,7.60
2018-07-23T06:28:46.385Z,9.00
2018-07-23T06:31:16.510Z,9.60
2018-07-23T06:33:46.107Z,8.87
2018-07-23T06:36:17.101Z,10.17
2018-07-23T06:38:46.968Z,18.13
2018-07-23T06:41:17.070Z,8.30
2018-07-23T06:43:47.024Z,12.73
2018-07-23T06:46:16.804Z,9.83
2018-07-23T06:48:46.739Z,9.20
2018-07-23T06:51:16.459Z,6.47
2018-07-23T06:53:46.342Z,7.87
2018-07-23T06:56:16.080Z,11.33
2018-07-23T06:58:46.097Z,7.03
2018-07-23T07:01:15.934Z,9.10
2018-07-23T07:03:46.060Z,8.03
2018-07-23T07:06:16.139Z,11.33
2018-07-23T07:08:46.194Z,7.67
2018-07-23T07:11:15.929Z,9.27
2018-07-23T07:13:45.880Z,9.00
2018-07-23T07:16:15.373Z,9.00
2018-07-23T07:18:45.222Z,5.87
2018-07-23T07:21:14.914Z,6.77
2018-07-23T07:23:44.691Z,9.27
2018-07-23T07:26:14.240Z,7.00
2018-07-23T07:28:44.622Z,9.90
2018-07-23T07:31:14.354Z,5.30
2018-07-23T07:33:45.499Z,9.43
2018-07-23T07:36:15.577Z,5.13
2018-07-23T07:38:45.393Z,6.03
2018-07-23T07:41:15.546Z,6.43
2018-07-23T07:43:45.079Z,4.50
2018-07-23T07:46:14.809Z,3.70
2018-07-23T07:48:45.373Z,3.73
2018-07-23T07:51:15.081Z,4.17
2018-07-23T07:53:44.632Z,5.53
2018-07-23T07:56:14.498Z,5.07
2018-07-23T07:58:44.129Z,5.70
2018-07-23T08:01:14.047Z,5.33
2018-07-23T08:03:43.700Z,8.30
2018-07-23T08:06:13.404Z,8.63
2018-07-23T08:08:43.453Z,5.57
2018-07-23T08:11:13.126Z,6.40
2018-07-23T08:13:42.801Z,11.73
2018-07-23T08:16:12.646Z,6.97
2018-07-23T08:18:42.731Z,5.27
2018-07-23T08:21:12.579Z,9.70
2018-07-23T08:23:42.360Z,5.13
2018-07-23T08:26:12.496Z,7.10
2018-07-23T08:28:42.508Z,5.47
2018-07-23T08:31:12.311Z,7.13
2018-07-23T08:33:42.237Z,5.33
2018-07-23T08:36:12.155Z,5.33
2018-07-23T08:38:41.934Z,6.10
2018-07-23T08:41:11.788Z,7.00
2018-07-23T08:43:42.219Z,6.50
2018-07-23T08:46:12.537Z,11.63
2018-07-23T08:48:42.475Z,8.50
2018-07-23T08:51:12.350Z,10.97
2018-07-23T08:53:42.874Z,7.50
2018-07-23T08:56:13.028Z,5.90
2018-07-23T08:58:42.826Z,4.83
2018-07-23T09:01:12.933Z,5.43
2018-07-23T09:03:43.355Z,6.30
2018-07-23T09:06:13.371Z,6.90
2018-07-23T09:08:43.465Z,6.43
2018-07-23T09:11:13.221Z,8.30
2018-07-23T09:13:43.325Z,10.83
2018-07-23T09:16:13.254Z,5.53
2018-07-23T09:18:43.049Z,5.63
2018-07-23T09:21:13.475Z,7.40
2018-07-23T09:23:43.710Z,4.90
2018-07-23T09:26:13.628Z,5.97
2018-07-23T09:28:43.469Z,5.50
2018-07-23T09:31:13.884Z,4.20
2018-07-23T09:33:43.602Z,8.70
2018-07-23T09:36:13.722Z,5.00
2018-07-23T09:38:43.297Z,8.57
2018-07-23T09:41:13.320Z,4.43
2018-07-23T09:43:43.609Z,5.13
2018-07-23T09:46:14.491Z,4.47
2018-07-23T09:48:44.207Z,5.03
2018-07-23T09:51:16.180Z,5.13
2018-07-23T09:53:46.004Z,6.57
2018-07-23T09:56:15.672Z,11.97
2018-07-23T09:58:45.532Z,5.50
2018-07-23T10:01:19.899Z,4.40
2018-07-23T10:03:49.927Z,7.30
2018-07-23T10:06:19.849Z,4.37
2018-07-23T10:08:49.728Z,4.87
2018-07-23T10:11:19.554Z,10.03
2018-07-23T10:13:49.100Z,4.10
2018-07-23T10:16:18.796Z,5.13
2018-07-23T10:18:48.552Z,5.47
2018-07-23T10:21:19.050Z,6.93
2018-07-23T10:23:49.333Z,4.83
2018-07-23T10:26:18.887Z,6.33
2018-07-23T10:28:48.560Z,8.03
2018-07-23T10:31:18.506Z,7.00
2018-07-23T10:33:48.337Z,5.00
2018-07-23T10:36:18.469Z,4.13
2018-07-23T10:38:49.284Z,6.47
2018-07-23T10:41:19.258Z,9.00
2018-07-23T10:43:49.138Z,11.33
2018-07-23T10:46:19.229Z,7.50
2018-07-23T10:48:49.451Z,5.90
2018-07-23T10:51:19.478Z,6.47
2018-07-23T10:53:49.497Z,6.30
2018-07-23T10:56:19.407Z,13.73
2018-07-23T10:58:49.319Z,10.90
2018-07-23T11:01:19.225Z,4.93
2018-07-23T11:03:48.927Z,4.50
2018-07-23T11:06:18.681Z,5.30
2018-07-23T11:08:48.524Z,5.10
2018-07-23T11:11:18.150Z,4.50
2018-07-23T11:13:48.658Z,6.50
2018-07-23T11:16:18.873Z,4.80
2018-07-23T11:18:49.328Z,4.83
2018-07-23T11:21:19.466Z,4.43
2018-07-23T11:23:49.393Z,8.00
2018-07-23T11:26:20.058Z,5.13
2018-07-23T11:28:49.803Z,14.57
2018-07-23T11:31:19.585Z,5.07
2018-07-23T11:33:49.965Z,5.10
2018-07-23T11:36:19.825Z,4.60
2018-07-23T11:38:49.868Z,7.83
2018-07-23T11:41:19.479Z,11.50
2018-07-23T11:43:49.407Z,5.33
2018-07-23T11:46:24.984Z,4.23
2018-07-23T11:48:49.107Z,4.63
2018-07-23T11:51:18.853Z,8.50
2018-07-23T11:53:48.516Z,5.53
2018-07-23T11:56:18.128Z,4.83
2018-07-23T11:58:47.758Z,5.30
2018-07-23T12:01:17.706Z,7.00
2018-07-23T12:03:47.432Z,7.73
2018-07-23T12:06:17.974Z,4.33
2018-07-23T12:08:48.598Z,4.37
2018-07-23T12:11:19.782Z,5.93
2018-07-23T12:13:50.076Z,4.87
2018-07-23T12:16:20.512Z,4.97
2018-07-23T12:18:50.282Z,4.07
2018-07-23T12:21:19.713Z,7.93
2018-07-23T12:23:49.739Z,4.43
2018-07-23T12:26:19.589Z,4.63
2018-07-23T12:28:49.898Z,4.47
2018-07-23T12:31:19.813Z,3.40
2018-07-23T12:33:49.641Z,4.27
2018-07-23T12:36:19.448Z,3.93
2018-07-23T12:38:49.183Z,3.20
2018-07-23T12:41:18.993Z,3.83
2018-07-23T12:43:49.615Z,5.27
2018-07-23T12:46:20.026Z,5.10
2018-07-23T12:48:49.804Z,2.90
2018-07-23T12:51:19.896Z,3.50
2018-07-23T12:53:49.924Z,6.73
2018-07-23T12:56:21.071Z,4.13
2018-07-23T12:58:50.745Z,6.50
2018-07-23T13:01:19.965Z,3.73
2018-07-23T13:03:49.732Z,3.97
2018-07-23T13:06:19.462Z,3.57
2018-07-23T13:08:52.293Z,7.53
2018-07-23T13:11:21.865Z,4.43
2018-07-23T13:13:51.312Z,5.47
2018-07-23T13:16:21.025Z,9.13
2018-07-23T13:18:50.785Z,3.47
2018-07-23T13:21:20.351Z,4.90
2018-07-23T13:23:49.894Z,5.57
2018-07-23T13:26:19.875Z,5.93
2018-07-23T13:28:49.764Z,3.50
2018-07-23T13:31:19.513Z,5.53
2018-07-23T13:33:54.766Z,3.57
2018-07-23T13:36:25.244Z,10.00
2018-07-23T13:38:54.685Z,4.80
2018-07-23T13:41:24.406Z,3.27
2018-07-23T13:43:53.731Z,3.00
2018-07-23T13:46:23.303Z,3.40
2018-07-23T13:48:52.792Z,3.40
2018-07-23T13:51:22.206Z,4.30
2018-07-23T13:53:52.292Z,4.37
2018-07-23T13:56:21.692Z,6.37
2018-07-23T13:58:51.098Z,4.30
2018-07-23T14:01:20.648Z,4.30
2018-07-23T14:03:50.097Z,5.57
2018-07-23T14:06:20.006Z,3.27
2018-07-23T14:08:49.664Z,4.57
2018-07-23T14:11:19.643Z,5.17
2018-07-23T14:13:49.344Z,3.63
2018-07-23T14:16:18.907Z,3.37
2018-07-23T14:18:48.932Z,3.83
2018-07-23T14:21:18.657Z,7.13
2018-07-23T14:23:48.880Z,4.90
2018-07-23T14:26:18.933Z,7.03
2018-07-23T14:28:48.885Z,3.23
2018-07-23T14:31:18.600Z,4.70
2018-07-23T14:33:48.343Z,3.10
2018-07-23T14:36:18.201Z,3.00
2018-07-23T14:38:47.987Z,3.40
2018-07-23T14:41:17.855Z,3.83
2018-07-23T14:43:47.438Z,3.10
2018-07-23T14:46:17.195Z,6.20
2018-07-23T14:48:46.979Z,8.57
2018-07-23T14:51:16.697Z,4.30
2018-07-23T14:53:46.388Z,5.80
2018-07-23T14:56:16.481Z,11.57
2018-07-23T14:58:46.245Z,14.17
2018-07-23T15:01:17.069Z,2.93
2018-07-23T15:03:47.824Z,3.17
2018-07-23T15:06:18.747Z,3.23
2018-07-23T15:08:48.728Z,5.00
2018-07-23T15:11:18.780Z,3.40
2018-07-23T15:13:49.062Z,3.03
2018-07-23T15:16:18.952Z,3.03
2018-07-23T15:18:48.710Z,4.20
2018-07-23T15:21:19.383Z,4.90
2018-07-23T15:27:03.873Z,5.17
2018-07-23T15:29:33.373Z,2.73
2018-07-23T15:32:03.891Z,4.10
2018-07-23T15:34:33.233Z,5.53
2018-07-23T15:37:02.837Z,3.93
2018-07-23T15:39:32.236Z,4.63
2018-07-23T15:42:02.306Z,2.80
2018-07-23T15:44:32.187Z,3.77
2018-07-23T15:47:01.583Z,3.53
2018-07-23T15:49:31.231Z,3.47
2018-07-23T15:52:00.722Z,3.60
2018-07-23T15:54:29.960Z,2.93
2018-07-23T15:56:59.247Z,4.90
2018-07-23T15:59:28.549Z,6.20
2018-07-23T16:01:58.059Z,4.33
2018-07-23T16:04:27.525Z,3.40
2018-07-23T16:06:56.885Z,6.20
2018-07-23T16:09:26.284Z,2.73
2018-07-23T16:11:55.620Z,6.53
2018-07-23T16:14:26.103Z,3.50
2018-07-23T16:16:55.382Z,3.90
2018-07-23T16:19:25.212Z,3.63
2018-07-23T16:21:55.118Z,3.47
2018-07-23T16:24:24.554Z,4.73
2018-07-23T16:27:57.505Z,3.40
2018-07-23T16:30:26.805Z,6.13
2018-07-23T16:32:56.307Z,3.80
2018-07-23T16:35:26.474Z,4.30
2018-07-23T16:37:56.094Z,6.67
2018-07-23T16:40:25.384Z,4.23
2018-07-23T16:42:55.936Z,3.27
2018-07-23T16:45:25.279Z,9.30
2018-07-23T16:47:55.090Z,4.00
2018-07-23T16:50:24.610Z,4.20
2018-07-23T16:52:54.153Z,4.07
2018-07-23T16:55:23.578Z,11.57
2018-07-23T16:57:53.434Z,6.93
2018-07-23T17:00:22.770Z,6.53
2018-07-23T17:02:52.239Z,5.10
2018-07-23T17:05:23.264Z,4.87
2018-07-23T17:07:53.167Z,5.20
2018-07-23T17:10:22.703Z,5.90
2018-07-23T17:12:52.658Z,4.60
2018-07-23T17:15:22.350Z,5.93
2018-07-23T17:17:51.999Z,5.23
2018-07-23T17:20:22.008Z,4.60
2018-07-23T17:22:51.308Z,5.00
2018-07-23T17:25:20.611Z,10.37
2018-07-23T17:27:50.566Z,4.90
2018-07-23T17:30:19.952Z,6.27
2018-07-23T17:32:49.649Z,4.37
2018-07-23T17:35:19.536Z,3.97
2018-07-23T17:37:48.963Z,4.40
2018-07-23T17:40:18.766Z,11.13
2018-07-23T17:42:48.581Z,5.43
2018-07-23T17:45:18.857Z,5.20
2018-07-23T17:47:48.526Z,8.20
2018-07-23T17:50:17.949Z,4.70
2018-07-23T17:52:47.675Z,5.13
2018-07-23T17:55:17.265Z,5.67
2018-07-23T17:57:47.125Z,5.83
2018-07-23T18:00:16.786Z,4.60
2018-07-23T18:02:46.448Z,5.60
2018-07-23T18:05:16.910Z,6.03
2018-07-23T18:07:46.754Z,4.33
2018-07-23T18:10:16.189Z,5.13
2018-07-23T18:12:45.975Z,4.83
2018-07-23T18:15:17.145Z,4.23
2018-07-23T18:17:46.767Z,12.33
2018-07-23T18:20:16.528Z,4.87
2018-07-23T18:22:46.154Z,5.23
2018-07-23T18:25:16.699Z,8.40
2018-07-23T18:27:46.719Z,6.57
2018-07-23T18:30:16.772Z,7.30
2018-07-23T18:32:48.222Z,4.90
2018-07-23T18:35:18.010Z,5.43
2018-07-23T18:37:48.171Z,5.10
2018-07-23T18:40:18.892Z,4.20
2018-07-23T18:42:49.106Z,4.80
2018-07-23T18:45:19.252Z,4.47
2018-07-23T18:47:49.557Z,6.90
2018-07-23T18:50:20.240Z,4.80
2018-07-23T18:52:51.152Z,5.60
2018-07-23T18:55:21.916Z,5.90
2018-07-23T18:57:52.360Z,4.73
2018-07-23T19:00:23.868Z,4.40
2018-07-23T19:02:54.313Z,8.63
2018-07-23T19:05:24.033Z,4.67
2018-07-23T19:07:53.737Z,5.10
2018-07-23T19:10:23.327Z,11.03
2018-07-23T19:12:53.301Z,3.90
2018-07-23T19:15:22.946Z,8.53
2018-07-23T19:17:52.631Z,5.50
2018-07-23T19:20:22.427Z,10.40
2018-07-23T19:22:52.237Z,8.73
2018-07-23T19:25:22.401Z,6.60
2018-07-23T19:27:51.820Z,4.90
2018-07-23T19:30:21.544Z,5.20
2018-07-23T19:32:51.231Z,7.20
2018-07-23T19:35:21.312Z,5.20
2018-07-23T19:37:50.727Z,5.33
2018-07-23T19:40:20.710Z,5.97
2018-07-23T19:42:51.213Z,4.70
2018-07-23T19:45:21.467Z,7.97
2018-07-23T19:47:51.615Z,5.20
2018-07-23T19:50:21.143Z,6.90
2018-07-23T19:52:50.685Z,7.93
2018-07-23T19:55:21.357Z,6.93
2018-07-23T19:57:52.156Z,11.53
2018-07-23T20:00:22.131Z,4.00
2018-07-23T20:02:52.349Z,9.30
2018-07-23T20:05:22.680Z,4.20
2018-07-23T20:07:52.723Z,10.97
2018-07-23T20:10:22.543Z,4.37
2018-07-23T20:12:54.271Z,5.93
2018-07-23T20:15:24.085Z,3.80
2018-07-23T20:17:53.973Z,9.17
2018-07-23T20:20:24.085Z,10.07
2018-07-23T20:22:54.017Z,4.50
2018-07-23T20:25:23.943Z,12.33
2018-07-23T20:27:54.253Z,3.33
2018-07-23T20:30:24.126Z,4.77
2018-07-23T20:32:54.085Z,6.20
2018-07-23T20:35:24.207Z,7.10
2018-07-23T20:37:54.402Z,4.97
2018-07-23T20:40:26.791Z,6.17
2018-07-23T20:42:57.046Z,4.30
2018-07-23T20:45:27.442Z,11.17
2018-07-23T20:47:57.073Z,5.53
2018-07-23T20:50:27.755Z,7.40
2018-07-23T20:52:58.230Z,7.50
2018-07-23T20:55:27.823Z,5.03
2018-07-23T20:57:57.371Z,5.53
2018-07-23T21:00:27.111Z,5.40
2018-07-23T21:02:56.325Z,6.60
2018-07-23T21:05:25.619Z,8.87
2018-07-23T21:07:55.095Z,9.00
2018-07-23T21:10:24.599Z,4.63
2018-07-23T21:12:55.301Z,10.13
2018-07-23T21:15:24.713Z,5.07
2018-07-23T21:17:54.292Z,15.67
2018-07-23T21:20:23.746Z,7.00
2018-07-23T21:22:54.280Z,5.30
2018-07-23T21:25:23.754Z,11.07
2018-07-23T21:27:53.131Z,5.13
2018-07-23T21:30:23.092Z,6.23
2018-07-23T21:32:52.756Z,15.20
2018-07-23T21:35:23.534Z,8.27
2018-07-23T21:37:53.021Z,8.97
2018-07-23T21:40:22.401Z,12.20
2018-07-23T21:42:51.803Z,7.80
2018-07-23T21:45:21.588Z,19.10
2018-07-23T21:47:51.188Z,10.50
2018-07-23T21:50:21.525Z,6.47
2018-07-23T21:52:51.773Z,18.23
2018-07-23T21:55:21.720Z,7.43
2018-07-23T21:57:53.002Z,8.00
2018-07-23T22:00:23.339Z,8.03
2018-07-23T22:02:52.793Z,8.07
2018-07-23T22:05:22.557Z,17.10
2018-07-23T22:07:51.995Z,7.93
2018-07-23T22:10:21.480Z,9.10
2018-07-23T22:12:51.172Z,11.53
2018-07-23T22:15:20.708Z,8.53
2018-07-23T22:17:50.396Z,14.77
2018-07-23T22:20:19.993Z,23.10
2018-07-23T22:22:49.542Z,9.23
2018-07-23T22:25:19.104Z,9.20
2018-07-23T22:27:50.382Z,12.60
2018-07-23T22:30:20.086Z,10.97
2018-07-23T22:32:49.918Z,12.30
2018-07-23T22:35:19.544Z,8.70
2018-07-23T22:37:51.284Z,10.17
2018-07-23T22:40:21.132Z,10.80
2018-07-23T22:42:50.664Z,10.60
2018-07-23T22:45:20.152Z,11.73
2018-07-23T22:47:49.862Z,9.37
2018-07-23T22:50:22.163Z,10.33
2018-07-23T22:52:52.213Z,13.80
2018-07-23T22:55:21.672Z,16.70
2018-07-23T22:57:51.372Z,15.97
2018-07-23T23:00:21.733Z,10.73
2018-07-23T23:02:51.629Z,14.17
2018-07-23T23:05:21.275Z,21.10
2018-07-23T23:07:51.025Z,17.03
2018-07-23T23:10:20.823Z,18.37
2018-07-23T23:12:50.439Z,13.17
2018-07-23T23:15:20.597Z,8.90
2018-07-23T23:17:50.061Z,15.73
2018-07-23T23:20:19.709Z,9.10
2018-07-23T23:22:49.273Z,10.07
2018-07-23T23:25:18.819Z,9.27
2018-07-23T23:27:48.489Z,11.73
2018-07-23T23:30:18.491Z,22.13
2018-07-23T23:32:48.416Z,10.60
2018-07-23T23:35:18.190Z,14.17
2018-07-23T23:37:48.783Z,12.07
2018-07-23T23:40:18.651Z,9.90
2018-07-23T23:42:48.477Z,12.30
2018-07-23T23:45:18.227Z,16.00
2018-07-23T23:47:47.984Z,8.43
2018-07-23T23:50:17.551Z,11.83
2018-07-23T23:52:47.307Z,13.50
2018-07-23T23:55:17.222Z,12.60
2018-07-23T23:57:47.141Z,14.83
